sensor_id;sensor_type;location;lat;lon;timestamp;temperature;humidity
20384;DHT22;46458;50.966;7.002;2023-05-10T00:02:02;14.30;99.90
20384;DHT22;46458;50.966;7.002;2023-05-10T00:04:31;14.30;99.90
20384;DHT22;46458;50.966;7.002;2023-05-10T00:07:03;14.40;99.90
20384;DHT22;46458;50.966;7.002;2023-05-10T00:09:34;14.40;99.90
20384;DHT22;46458;50.966;7.002;2023-05-10T00:12:09;14.40;99.90
20384;DHT22;46458;50.966;7.002;2023-05-10T00:14:38;14.30;99.90
20384;DHT22;46458;50.966;7.002;2023-05-10T00:17:07;14.40;99.90
20384;DHT22;46458;50.966;7.002;2023-05-10T00:19:35;14.30;99.90
20384;DHT22;46458;50.966;7.002;2023-05-10T00:22:09;14.30;99.90
20384;DHT22;46458;50.966;7.002;2023-05-10T00:24:38;14.30;99.90
20384;DHT22;46458;50.966;7.002;2023-05-10T00:27:07;14.30;99.90
20384;DHT22;46458;50.966;7.002;2023-05-10T00:29:36;14.40;99.90
20384;DHT22;46458;50.966;7.002;2023-05-10T00:32:08;14.40;99.90
20384;DHT22;46458;50.966;7.002;2023-05-10T00:34:42;14.40;99.90
20384;DHT22;46458;50.966;7.002;2023-05-10T00:37:14;14.40;99.90
20384;DHT22;46458;50.966;7.002;2023-05-10T00:39:45;14.30;99.90
20384;DHT22;46458;50.966;7.002;2023-05-10T00:42:16;14.80;99.90
20384;DHT22;46458;50.966;7.002;2023-05-10T00:44:45;14.30;99.90
20384;DHT22;46458;50.966;7.002;2023-05-10T00:47:13;14.30;99.90
20384;DHT22;46458;50.966;7.002;2023-05-10T00:49:47;14.40;99.90
20384;DHT22;46458;50.966;7.002;2023-05-10T00:52:19;14.40;99.90
20384;DHT22;46458;50.966;7.002;2023-05-10T00:54:49;14.40;99.90
20384;DHT22;46458;50.966;7.002;2023-05-10T00:57:19;14.50;99.90
20384;DHT22;46458;50.966;7.002;2023-05-10T00:59:51;14.40;99.90
20384;DHT22;46458;50.966;7.002;2023-05-10T01:02:20;14.40;99.90
20384;DHT22;46458;50.966;7.002;2023-05-10T01:04:50;14.40;99.90
20384;DHT22;46458;50.966;7.002;2023-05-10T01:07:21;14.40;99.90
20384;DHT22;46458;50.966;7.002;2023-05-10T01:09:50;14.40;99.90
20384;DHT22;46458;50.966;7.002;2023-05-10T01:12:20;14.50;99.90
20384;DHT22;46458;50.966;7.002;2023-05-10T01:14:49;14.50;99.90
20384;DHT22;46458;50.966;7.002;2023-05-10T01:17:18;14.40;99.90
20384;DHT22;46458;50.966;7.002;2023-05-10T01:19:47;14.50;99.90
20384;DHT22;46458;50.966;7.002;2023-05-10T01:22:39;14.50;99.90
20384;DHT22;46458;50.966;7.002;2023-05-10T01:25:32;14.50;99.90
20384;DHT22;46458;50.966;7.002;2023-05-10T01:28:23;14.50;99.90
20384;DHT22;46458;50.966;7.002;2023-05-10T01:31:15;14.50;99.90
20384;DHT22;46458;50.966;7.002;2023-05-10T01:33:54;14.50;99.90
20384;DHT22;46458;50.966;7.002;2023-05-10T01:36:40;14.50;99.90
20384;DHT22;46458;50.966;7.002;2023-05-10T01:39:16;14.50;99.90
20384;DHT22;46458;50.966;7.002;2023-05-10T01:41:52;14.50;99.90
20384;DHT22;46458;50.966;7.002;2023-05-10T01:44:31;14.50;99.90
20384;DHT22;46458;50.966;7.002;2023-05-10T01:47:07;14.50;99.90
20384;DHT22;46458;50.966;7.002;2023-05-10T01:49:44;14.50;99.90
20384;DHT22;46458;50.966;7.002;2023-05-10T01:52:18;14.50;99.90
20384;DHT22;46458;50.966;7.002;2023-05-10T01:54:51;14.60;99.90
20384;DHT22;46458;50.966;7.002;2023-05-10T01:57:26;14.60;99.90
20384;DHT22;46458;50.966;7.002;2023-05-10T01:59:56;14.60;99.90
20384;DHT22;46458;50.966;7.002;2023-05-10T02:02:27;14.60;99.90
20384;DHT22;46458;50.966;7.002;2023-05-10T02:04:59;14.50;99.90
20384;DHT22;46458;50.966;7.002;2023-05-10T02:07:29;14.50;99.90
20384;DHT22;46458;50.966;7.002;2023-05-10T02:10:06;14.40;99.90
20384;DHT22;46458;50.966;7.002;2023-05-10T02:12:41;14.70;99.90
20384;DHT22;46458;50.966;7.002;2023-05-10T02:15:11;14.40;99.90
20384;DHT22;46458;50.966;7.002;2023-05-10T02:17:42;14.30;99.90
20384;DHT22;46458;50.966;7.002;2023-05-10T02:20:16;14.30;99.90
20384;DHT22;46458;50.966;7.002;2023-05-10T02:22:49;14.30;99.90
20384;DHT22;46458;50.966;7.002;2023-05-10T02:25:21;14.30;99.90
20384;DHT22;46458;50.966;7.002;2023-05-10T02:27:51;14.30;99.90
20384;DHT22;46458;50.966;7.002;2023-05-10T02:30:22;14.20;99.90
20384;DHT22;46458;50.966;7.002;2023-05-10T02:32:52;14.10;99.90
20384;DHT22;46458;50.966;7.002;2023-05-10T02:35:26;14.10;99.90
20384;DHT22;46458;50.966;7.002;2023-05-10T02:37:56;14.10;99.90
20384;DHT22;46458;50.966;7.002;2023-05-10T02:40:27;14.10;99.90
20384;DHT22;46458;50.966;7.002;2023-05-10T02:43:01;14.10;99.90
20384;DHT22;46458;50.966;7.002;2023-05-10T02:45:32;14.10;99.90
20384;DHT22;46458;50.966;7.002;2023-05-10T02:48:05;14.10;99.90
20384;DHT22;46458;50.966;7.002;2023-05-10T02:50:36;14.10;99.90
20384;DHT22;46458;50.966;7.002;2023-05-10T02:53:10;14.00;99.90
20384;DHT22;46458;50.966;7.002;2023-05-10T02:55:43;14.00;99.90
20384;DHT22;46458;50.966;7.002;2023-05-10T02:58:13;14.10;99.90
20384;DHT22;46458;50.966;7.002;2023-05-10T03:00:46;14.20;99.90
20384;DHT22;46458;50.966;7.002;2023-05-10T03:03:15;14.10;99.90
20384;DHT22;46458;50.966;7.002;2023-05-10T03:05:50;14.10;99.90
20384;DHT22;46458;50.966;7.002;2023-05-10T03:08:21;13.20;99.90
20384;DHT22;46458;50.966;7.002;2023-05-10T03:11:01;14.10;99.90
20384;DHT22;46458;50.966;7.002;2023-05-10T03:13:42;14.00;99.90
20384;DHT22;46458;50.966;7.002;2023-05-10T03:16:15;13.90;99.90
20384;DHT22;46458;50.966;7.002;2023-05-10T03:18:53;14.00;99.90
20384;DHT22;46458;50.966;7.002;2023-05-10T03:21:28;14.00;99.90
20384;DHT22;46458;50.966;7.002;2023-05-10T03:23:59;14.00;99.90
20384;DHT22;46458;50.966;7.002;2023-05-10T03:26:35;14.00;99.90
20384;DHT22;46458;50.966;7.002;2023-05-10T03:29:10;14.00;99.90
20384;DHT22;46458;50.966;7.002;2023-05-10T03:31:40;14.10;99.90
20384;DHT22;46458;50.966;7.002;2023-05-10T03:34:12;14.00;99.90
20384;DHT22;46458;50.966;7.002;2023-05-10T03:36:43;14.10;99.90
20384;DHT22;46458;50.966;7.002;2023-05-10T03:39:12;14.10;99.90
20384;DHT22;46458;50.966;7.002;2023-05-10T03:41:42;14.20;99.90
20384;DHT22;46458;50.966;7.002;2023-05-10T03:44:14;14.10;99.90
20384;DHT22;46458;50.966;7.002;2023-05-10T03:46:43;14.20;99.90
20384;DHT22;46458;50.966;7.002;2023-05-10T03:49:13;14.30;99.90
20384;DHT22;46458;50.966;7.002;2023-05-10T03:51:45;14.20;99.90
20384;DHT22;46458;50.966;7.002;2023-05-10T03:54:13;14.20;99.90
20384;DHT22;46458;50.966;7.002;2023-05-10T03:56:42;14.20;99.90
20384;DHT22;46458;50.966;7.002;2023-05-10T03:59:12;14.10;99.90
20384;DHT22;46458;50.966;7.002;2023-05-10T04:01:41;14.00;99.90
20384;DHT22;46458;50.966;7.002;2023-05-10T04:04:13;14.00;99.90
20384;DHT22;46458;50.966;7.002;2023-05-10T04:06:46;14.10;99.90
20384;DHT22;46458;50.966;7.002;2023-05-10T04:09:16;14.10;99.90
20384;DHT22;46458;50.966;7.002;2023-05-10T04:11:47;14.10;99.90
20384;DHT22;46458;50.966;7.002;2023-05-10T04:14:15;14.20;99.90
20384;DHT22;46458;50.966;7.002;2023-05-10T04:16:46;14.20;99.90
20384;DHT22;46458;50.966;7.002;2023-05-10T04:19:18;14.20;99.90
20384;DHT22;46458;50.966;7.002;2023-05-10T04:21:52;14.20;99.90
20384;DHT22;46458;50.966;7.002;2023-05-10T04:24:21;14.30;99.90
20384;DHT22;46458;50.966;7.002;2023-05-10T04:26:50;14.20;99.90
20384;DHT22;46458;50.966;7.002;2023-05-10T04:29:19;14.20;99.90
20384;DHT22;46458;50.966;7.002;2023-05-10T04:31:48;14.20;99.90
20384;DHT22;46458;50.966;7.002;2023-05-10T04:34:17;14.20;99.90
20384;DHT22;46458;50.966;7.002;2023-05-10T04:36:48;14.20;99.90
20384;DHT22;46458;50.966;7.002;2023-05-10T04:39:19;14.10;99.90
20384;DHT22;46458;50.966;7.002;2023-05-10T04:41:48;14.10;99.90
20384;DHT22;46458;50.966;7.002;2023-05-10T04:44:17;14.20;99.90
20384;DHT22;46458;50.966;7.002;2023-05-10T04:46:49;14.20;99.90
20384;DHT22;46458;50.966;7.002;2023-05-10T04:49:17;14.30;99.90
20384;DHT22;46458;50.966;7.002;2023-05-10T04:51:58;14.30;99.90
20384;DHT22;46458;50.966;7.002;2023-05-10T04:54:30;14.40;99.90
20384;DHT22;46458;50.966;7.002;2023-05-10T04:56:59;14.50;99.90
20384;DHT22;46458;50.966;7.002;2023-05-10T04:59:27;14.40;99.90
20384;DHT22;46458;50.966;7.002;2023-05-10T05:01:57;14.50;99.90
20384;DHT22;46458;50.966;7.002;2023-05-10T05:04:26;14.40;99.90
20384;DHT22;46458;50.966;7.002;2023-05-10T05:06:55;14.40;99.90
20384;DHT22;46458;50.966;7.002;2023-05-10T05:09:26;14.30;99.90
20384;DHT22;46458;50.966;7.002;2023-05-10T05:11:57;14.40;99.90
20384;DHT22;46458;50.966;7.002;2023-05-10T05:14:26;14.40;99.90
20384;DHT22;46458;50.966;7.002;2023-05-10T05:16:55;14.50;99.90
20384;DHT22;46458;50.966;7.002;2023-05-10T05:19:24;14.50;99.90
20384;DHT22;46458;50.966;7.002;2023-05-10T05:21:53;14.50;99.90
20384;DHT22;46458;50.966;7.002;2023-05-10T05:24:22;14.40;99.90
20384;DHT22;46458;50.966;7.002;2023-05-10T05:26:53;14.30;99.90
20384;DHT22;46458;50.966;7.002;2023-05-10T05:29:26;14.40;99.90
20384;DHT22;46458;50.966;7.002;2023-05-10T05:31:55;14.40;99.90
20384;DHT22;46458;50.966;7.002;2023-05-10T05:34:24;14.50;99.90
20384;DHT22;46458;50.966;7.002;2023-05-10T05:36:57;14.50;99.90
20384;DHT22;46458;50.966;7.002;2023-05-10T05:39:26;14.60;99.90
20384;DHT22;46458;50.966;7.002;2023-05-10T05:41:55;14.60;99.90
20384;DHT22;46458;50.966;7.002;2023-05-10T05:44:26;14.60;99.90
20384;DHT22;46458;50.966;7.002;2023-05-10T05:46:55;14.60;99.90
20384;DHT22;46458;50.966;7.002;2023-05-10T05:49:24;14.60;99.90
20384;DHT22;46458;50.966;7.002;2023-05-10T05:51:58;14.60;99.90
20384;DHT22;46458;50.966;7.002;2023-05-10T05:54:32;14.60;99.90
20384;DHT22;46458;50.966;7.002;2023-05-10T05:57:04;14.60;99.90
20384;DHT22;46458;50.966;7.002;2023-05-10T05:59:38;14.60;99.90
20384;DHT22;46458;50.966;7.002;2023-05-10T06:02:09;14.60;99.90
20384;DHT22;46458;50.966;7.002;2023-05-10T06:04:38;14.60;99.90
20384;DHT22;46458;50.966;7.002;2023-05-10T06:07:07;14.60;99.90
20384;DHT22;46458;50.966;7.002;2023-05-10T06:09:36;14.60;99.90
20384;DHT22;46458;50.966;7.002;2023-05-10T06:12:05;14.60;99.90
20384;DHT22;46458;50.966;7.002;2023-05-10T06:14:36;14.60;99.90
20384;DHT22;46458;50.966;7.002;2023-05-10T06:17:08;14.50;99.90
20384;DHT22;46458;50.966;7.002;2023-05-10T06:19:37;14.50;99.90
20384;DHT22;46458;50.966;7.002;2023-05-10T06:22:06;14.60;99.90
20384;DHT22;46458;50.966;7.002;2023-05-10T06:24:35;14.60;99.90
20384;DHT22;46458;50.966;7.002;2023-05-10T06:27:03;14.70;99.90
20384;DHT22;46458;50.966;7.002;2023-05-10T06:29:37;14.60;99.90
20384;DHT22;46458;50.966;7.002;2023-05-10T06:32:06;14.60;99.90
20384;DHT22;46458;50.966;7.002;2023-05-10T06:34:35;14.60;99.90
20384;DHT22;46458;50.966;7.002;2023-05-10T06:37:04;14.60;99.90
20384;DHT22;46458;50.966;7.002;2023-05-10T06:39:33;14.60;99.90
20384;DHT22;46458;50.966;7.002;2023-05-10T06:42:02;14.70;99.90
20384;DHT22;46458;50.966;7.002;2023-05-10T06:44:34;14.60;99.90
20384;DHT22;46458;50.966;7.002;2023-05-10T06:47:06;14.60;99.90
20384;DHT22;46458;50.966;7.002;2023-05-10T06:49:38;14.60;99.90
20384;DHT22;46458;50.966;7.002;2023-05-10T06:52:06;14.60;99.90
20384;DHT22;46458;50.966;7.002;2023-05-10T06:54:38;14.60;99.90
20384;DHT22;46458;50.966;7.002;2023-05-10T06:57:09;14.60;99.90
20384;DHT22;46458;50.966;7.002;2023-05-10T06:59:38;14.60;99.90
20384;DHT22;46458;50.966;7.002;2023-05-10T07:02:10;14.70;99.90
20384;DHT22;46458;50.966;7.002;2023-05-10T07:04:40;14.60;99.90
20384;DHT22;46458;50.966;7.002;2023-05-10T07:07:09;14.60;99.90
20384;DHT22;46458;50.966;7.002;2023-05-10T07:09:39;14.60;99.90
20384;DHT22;46458;50.966;7.002;2023-05-10T07:12:08;14.50;99.90
20384;DHT22;46458;50.966;7.002;2023-05-10T07:14:39;14.50;99.90
20384;DHT22;46458;50.966;7.002;2023-05-10T07:17:10;14.50;99.90
20384;DHT22;46458;50.966;7.002;2023-05-10T07:19:39;14.40;99.90
20384;DHT22;46458;50.966;7.002;2023-05-10T07:22:08;14.50;99.90
20384;DHT22;46458;50.966;7.002;2023-05-10T07:24:43;14.50;99.90
20384;DHT22;46458;50.966;7.002;2023-05-10T07:27:12;14.50;99.90
20384;DHT22;46458;50.966;7.002;2023-05-10T07:29:41;14.50;99.90
20384;DHT22;46458;50.966;7.002;2023-05-10T07:32:12;14.40;99.90
20384;DHT22;46458;50.966;7.002;2023-05-10T07:34:41;14.40;99.90
20384;DHT22;46458;50.966;7.002;2023-05-10T07:37:12;14.40;99.90
20384;DHT22;46458;50.966;7.002;2023-05-10T07:39:41;14.40;99.90
20384;DHT22;46458;50.966;7.002;2023-05-10T07:42:10;14.40;99.90
20384;DHT22;46458;50.966;7.002;2023-05-10T07:44:38;14.40;99.90
20384;DHT22;46458;50.966;7.002;2023-05-10T07:47:07;14.50;99.90
20384;DHT22;46458;50.966;7.002;2023-05-10T07:49:39;14.40;99.90
20384;DHT22;46458;50.966;7.002;2023-05-10T07:52:08;14.40;99.90
20384;DHT22;46458;50.966;7.002;2023-05-10T07:54:36;14.50;99.90
20384;DHT22;46458;50.966;7.002;2023-05-10T07:57:05;14.50;99.90
20384;DHT22;46458;50.966;7.002;2023-05-10T07:59:40;14.50;99.90
20384;DHT22;46458;50.966;7.002;2023-05-10T08:02:10;14.60;99.90
20384;DHT22;46458;50.966;7.002;2023-05-10T08:04:42;14.60;99.90
20384;DHT22;46458;50.966;7.002;2023-05-10T08:07:12;14.60;99.90
20384;DHT22;46458;50.966;7.002;2023-05-10T08:09:41;14.70;99.90
20384;DHT22;46458;50.966;7.002;2023-05-10T08:12:10;14.60;99.90
20384;DHT22;46458;50.966;7.002;2023-05-10T08:14:40;14.60;99.90
20384;DHT22;46458;50.966;7.002;2023-05-10T08:17:09;14.50;99.90
20384;DHT22;46458;50.966;7.002;2023-05-10T08:19:38;14.50;99.90
20384;DHT22;46458;50.966;7.002;2023-05-10T08:22:18;14.50;99.90
20384;DHT22;46458;50.966;7.002;2023-05-10T08:24:47;14.50;99.90
20384;DHT22;46458;50.966;7.002;2023-05-10T08:27:16;14.50;99.90
20384;DHT22;46458;50.966;7.002;2023-05-10T08:29:44;14.50;99.90
20384;DHT22;46458;50.966;7.002;2023-05-10T08:32:13;14.50;99.90
20384;DHT22;46458;50.966;7.002;2023-05-10T08:34:42;14.50;99.90
20384;DHT22;46458;50.966;7.002;2023-05-10T08:37:11;14.60;99.90
20384;DHT22;46458;50.966;7.002;2023-05-10T08:39:43;14.60;99.90
20384;DHT22;46458;50.966;7.002;2023-05-10T08:42:19;14.70;99.90
20384;DHT22;46458;50.966;7.002;2023-05-10T08:44:51;14.70;99.90
20384;DHT22;46458;50.966;7.002;2023-05-10T08:47:20;14.80;99.90
20384;DHT22;46458;50.966;7.002;2023-05-10T08:49:49;14.90;99.90
20384;DHT22;46458;50.966;7.002;2023-05-10T08:52:19;14.90;99.90
20384;DHT22;46458;50.966;7.002;2023-05-10T08:54:51;14.90;99.90
20384;DHT22;46458;50.966;7.002;2023-05-10T08:57:20;14.90;99.90
20384;DHT22;46458;50.966;7.002;2023-05-10T08:59:49;14.90;99.90
20384;DHT22;46458;50.966;7.002;2023-05-10T09:02:21;14.70;99.90
20384;DHT22;46458;50.966;7.002;2023-05-10T09:04:50;14.80;99.90
20384;DHT22;46458;50.966;7.002;2023-05-10T09:07:20;14.70;99.90
20384;DHT22;46458;50.966;7.002;2023-05-10T09:09:54;14.70;99.90
20384;DHT22;46458;50.966;7.002;2023-05-10T09:12:23;14.70;99.90
20384;DHT22;46458;50.966;7.002;2023-05-10T09:14:52;14.70;99.90
20384;DHT22;46458;50.966;7.002;2023-05-10T09:17:23;14.70;99.90
20384;DHT22;46458;50.966;7.002;2023-05-10T09:19:57;14.80;99.90
20384;DHT22;46458;50.966;7.002;2023-05-10T09:22:27;14.80;99.90
20384;DHT22;46458;50.966;7.002;2023-05-10T09:25:09;14.80;99.90
20384;DHT22;46458;50.966;7.002;2023-05-10T09:27:40;14.90;99.90
20384;DHT22;46458;50.966;7.002;2023-05-10T09:30:10;14.90;99.90
20384;DHT22;46458;50.966;7.002;2023-05-10T09:32:41;15.00;99.90
20384;DHT22;46458;50.966;7.002;2023-05-10T09:35:11;14.90;99.90
20384;DHT22;46458;50.966;7.002;2023-05-10T09:37:44;14.90;99.90
20384;DHT22;46458;50.966;7.002;2023-05-10T09:40:19;14.90;99.90
20384;DHT22;46458;50.966;7.002;2023-05-10T09:42:52;15.00;99.90
20384;DHT22;46458;50.966;7.002;2023-05-10T09:45:23;15.00;99.90
20384;DHT22;46458;50.966;7.002;2023-05-10T09:47:55;15.00;99.90
20384;DHT22;46458;50.966;7.002;2023-05-10T09:50:27;15.00;99.90
20384;DHT22;46458;50.966;7.002;2023-05-10T09:52:57;14.90;99.90
20384;DHT22;46458;50.966;7.002;2023-05-10T09:55:41;14.90;99.90
20384;DHT22;46458;50.966;7.002;2023-05-10T09:58:15;15.00;99.90
20384;DHT22;46458;50.966;7.002;2023-05-10T10:00:45;15.00;99.90
20384;DHT22;46458;50.966;7.002;2023-05-10T10:03:18;15.00;99.90
20384;DHT22;46458;50.966;7.002;2023-05-10T10:05:51;15.00;99.90
20384;DHT22;46458;50.966;7.002;2023-05-10T10:08:21;15.00;99.90
20384;DHT22;46458;50.966;7.002;2023-05-10T10:10:53;14.90;99.90
20384;DHT22;46458;50.966;7.002;2023-05-10T10:13:31;15.00;99.90
20384;DHT22;46458;50.966;7.002;2023-05-10T10:16:00;15.00;99.90
20384;DHT22;46458;50.966;7.002;2023-05-10T10:18:30;15.00;99.90
20384;DHT22;46458;50.966;7.002;2023-05-10T10:20:59;15.00;99.90
20384;DHT22;46458;50.966;7.002;2023-05-10T10:23:28;15.10;99.90
20384;DHT22;46458;50.966;7.002;2023-05-10T10:26:00;15.10;99.90
20384;DHT22;46458;50.966;7.002;2023-05-10T10:28:43;15.20;99.90
20384;DHT22;46458;50.966;7.002;2023-05-10T10:31:24;15.30;99.90
20384;DHT22;46458;50.966;7.002;2023-05-10T10:34:00;15.30;99.90
20384;DHT22;46458;50.966;7.002;2023-05-10T10:36:30;15.50;99.90
20384;DHT22;46458;50.966;7.002;2023-05-10T10:39:00;15.60;99.90
20384;DHT22;46458;50.966;7.002;2023-05-10T10:41:36;15.80;99.90
20384;DHT22;46458;50.966;7.002;2023-05-10T10:44:25;15.90;99.90
20384;DHT22;46458;50.966;7.002;2023-05-10T10:47:05;16.10;99.90
20384;DHT22;46458;50.966;7.002;2023-05-10T10:49:43;16.30;99.90
20384;DHT22;46458;50.966;7.002;2023-05-10T10:52:20;16.60;99.90
20384;DHT22;46458;50.966;7.002;2023-05-10T10:54:58;16.90;99.90
20384;DHT22;46458;50.966;7.002;2023-05-10T10:57:43;17.10;99.90
20384;DHT22;46458;50.966;7.002;2023-05-10T11:00:28;17.20;99.90
20384;DHT22;46458;50.966;7.002;2023-05-10T11:03:11;17.10;99.90
20384;DHT22;46458;50.966;7.002;2023-05-10T11:05:45;17.00;99.90
20384;DHT22;46458;50.966;7.002;2023-05-10T11:08:18;16.90;99.90
20384;DHT22;46458;50.966;7.002;2023-05-10T11:11:03;16.80;99.90
20384;DHT22;46458;50.966;7.002;2023-05-10T11:13:38;16.70;99.90
20384;DHT22;46458;50.966;7.002;2023-05-10T11:16:12;16.70;99.90
20384;DHT22;46458;50.966;7.002;2023-05-10T11:18:59;16.70;99.90
20384;DHT22;46458;50.966;7.002;2023-05-10T11:21:33;16.70;99.90
20384;DHT22;46458;50.966;7.002;2023-05-10T11:24:13;16.60;99.90
20384;DHT22;46458;50.966;7.002;2023-05-10T11:26:42;16.60;99.90
20384;DHT22;46458;50.966;7.002;2023-05-10T11:29:14;16.60;99.90
20384;DHT22;46458;50.966;7.002;2023-05-10T11:31:43;16.50;99.90
20384;DHT22;46458;50.966;7.002;2023-05-10T11:34:23;16.50;99.90
20384;DHT22;46458;50.966;7.002;2023-05-10T11:36:53;16.40;99.90
20384;DHT22;46458;50.966;7.002;2023-05-10T11:39:26;16.40;99.90
20384;DHT22;46458;50.966;7.002;2023-05-10T11:41:56;16.40;99.90
20384;DHT22;46458;50.966;7.002;2023-05-10T11:44:32;16.50;99.90
20384;DHT22;46458;50.966;7.002;2023-05-10T11:47:01;16.60;99.90
20384;DHT22;46458;50.966;7.002;2023-05-10T11:49:30;16.50;99.90
20384;DHT22;46458;50.966;7.002;2023-05-10T11:52:06;16.50;99.90
20384;DHT22;46458;50.966;7.002;2023-05-10T11:54:36;16.40;99.90
20384;DHT22;46458;50.966;7.002;2023-05-10T11:57:05;16.50;99.90
20384;DHT22;46458;50.966;7.002;2023-05-10T11:59:37;16.60;99.90
20384;DHT22;46458;50.966;7.002;2023-05-10T12:02:06;16.60;99.90
20384;DHT22;46458;50.966;7.002;2023-05-10T12:04:35;16.70;99.90
20384;DHT22;46458;50.966;7.002;2023-05-10T12:07:04;16.70;99.90
20384;DHT22;46458;50.966;7.002;2023-05-10T12:09:33;16.70;99.90
20384;DHT22;46458;50.966;7.002;2023-05-10T12:12:02;16.70;99.90
20384;DHT22;46458;50.966;7.002;2023-05-10T12:14:36;16.60;99.90
20384;DHT22;46458;50.966;7.002;2023-05-10T12:17:05;16.60;99.90
20384;DHT22;46458;50.966;7.002;2023-05-10T12:19:41;16.60;99.90
20384;DHT22;46458;50.966;7.002;2023-05-10T12:22:12;16.70;99.90
20384;DHT22;46458;50.966;7.002;2023-05-10T12:24:45;16.70;99.90
20384;DHT22;46458;50.966;7.002;2023-05-10T12:27:14;16.70;99.90
20384;DHT22;46458;50.966;7.002;2023-05-10T12:29:45;16.80;99.90
20384;DHT22;46458;50.966;7.002;2023-05-10T12:32:16;16.80;99.90
20384;DHT22;46458;50.966;7.002;2023-05-10T12:34:46;16.90;99.90
20384;DHT22;46458;50.966;7.002;2023-05-10T12:37:16;16.80;99.90
20384;DHT22;46458;50.966;7.002;2023-05-10T12:39:45;16.90;99.90
20384;DHT22;46458;50.966;7.002;2023-05-10T12:42:14;16.90;99.90
20384;DHT22;46458;50.966;7.002;2023-05-10T12:44:45;16.90;99.90
20384;DHT22;46458;50.966;7.002;2023-05-10T12:47:14;16.90;99.90
20384;DHT22;46458;50.966;7.002;2023-05-10T12:49:43;17.00;99.90
20384;DHT22;46458;50.966;7.002;2023-05-10T12:52:12;17.00;99.90
20384;DHT22;46458;50.966;7.002;2023-05-10T12:54:41;17.00;99.90
20384;DHT22;46458;50.966;7.002;2023-05-10T12:57:09;17.00;99.90
20384;DHT22;46458;50.966;7.002;2023-05-10T12:59:41;16.90;99.90
20384;DHT22;46458;50.966;7.002;2023-05-10T13:02:12;16.90;99.90
20384;DHT22;46458;50.966;7.002;2023-05-10T13:04:43;17.00;99.90
20384;DHT22;46458;50.966;7.002;2023-05-10T13:07:14;17.00;99.90
20384;DHT22;46458;50.966;7.002;2023-05-10T13:09:43;17.00;99.90
20384;DHT22;46458;50.966;7.002;2023-05-10T13:12:14;17.10;99.90
20384;DHT22;46458;50.966;7.002;2023-05-10T13:14:43;17.20;99.90
20384;DHT22;46458;50.966;7.002;2023-05-10T13:17:15;17.30;99.90
20384;DHT22;46458;50.966;7.002;2023-05-10T13:19:44;17.40;99.90
20384;DHT22;46458;50.966;7.002;2023-05-10T13:22:14;17.60;99.90
20384;DHT22;46458;50.966;7.002;2023-05-10T13:24:43;17.90;99.90
20384;DHT22;46458;50.966;7.002;2023-05-10T13:27:12;18.10;99.90
20384;DHT22;46458;50.966;7.002;2023-05-10T13:29:41;18.40;99.90
20384;DHT22;46458;50.966;7.002;2023-05-10T13:32:10;18.50;99.90
20384;DHT22;46458;50.966;7.002;2023-05-10T13:34:41;18.50;99.90
20384;DHT22;46458;50.966;7.002;2023-05-10T13:37:10;18.60;99.90
20384;DHT22;46458;50.966;7.002;2023-05-10T13:39:39;18.60;99.90
20384;DHT22;46458;50.966;7.002;2023-05-10T13:42:08;18.60;99.90
20384;DHT22;46458;50.966;7.002;2023-05-10T13:44:40;18.70;99.90
20384;DHT22;46458;50.966;7.002;2023-05-10T13:47:12;18.90;99.90
20384;DHT22;46458;50.966;7.002;2023-05-10T13:49:44;18.90;99.90
20384;DHT22;46458;50.966;7.002;2023-05-10T13:52:12;18.90;99.90
20384;DHT22;46458;50.966;7.002;2023-05-10T13:54:41;18.90;99.90
20384;DHT22;46458;50.966;7.002;2023-05-10T13:57:10;19.00;99.90
20384;DHT22;46458;50.966;7.002;2023-05-10T13:59:39;19.00;99.90
20384;DHT22;46458;50.966;7.002;2023-05-10T14:02:08;19.00;99.90
20384;DHT22;46458;50.966;7.002;2023-05-10T14:04:38;19.00;99.90
20384;DHT22;46458;50.966;7.002;2023-05-10T14:07:12;19.00;99.90
20384;DHT22;46458;50.966;7.002;2023-05-10T14:09:41;18.70;99.90
20384;DHT22;46458;50.966;7.002;2023-05-10T14:12:10;18.70;99.90
20384;DHT22;46458;50.966;7.002;2023-05-10T14:14:40;18.60;99.90
20384;DHT22;46458;50.966;7.002;2023-05-10T14:17:11;18.60;99.90
20384;DHT22;46458;50.966;7.002;2023-05-10T14:19:40;18.50;99.90
20384;DHT22;46458;50.966;7.002;2023-05-10T14:22:11;18.30;99.90
20384;DHT22;46458;50.966;7.002;2023-05-10T14:24:40;18.30;99.90
20384;DHT22;46458;50.966;7.002;2023-05-10T14:27:12;18.30;99.90
20384;DHT22;46458;50.966;7.002;2023-05-10T14:29:41;18.40;99.90
20384;DHT22;46458;50.966;7.002;2023-05-10T14:32:10;18.50;99.90
20384;DHT22;46458;50.966;7.002;2023-05-10T14:34:39;18.50;99.90
20384;DHT22;46458;50.966;7.002;2023-05-10T14:37:13;18.50;99.90
20384;DHT22;46458;50.966;7.002;2023-05-10T14:39:42;18.60;99.90
20384;DHT22;46458;50.966;7.002;2023-05-10T14:42:11;18.60;99.90
20384;DHT22;46458;50.966;7.002;2023-05-10T14:44:43;18.60;99.90
20384;DHT22;46458;50.966;7.002;2023-05-10T14:47:12;18.50;99.90
20384;DHT22;46458;50.966;7.002;2023-05-10T14:49:40;18.40;99.90
20384;DHT22;46458;50.966;7.002;2023-05-10T14:52:12;18.30;99.90
20384;DHT22;46458;50.966;7.002;2023-05-10T14:54:41;18.30;99.90
20384;DHT22;46458;50.966;7.002;2023-05-10T14:57:10;18.10;99.90
20384;DHT22;46458;50.966;7.002;2023-05-10T14:59:38;18.00;99.90
20384;DHT22;46458;50.966;7.002;2023-05-10T15:02:08;17.90;99.90
20384;DHT22;46458;50.966;7.002;2023-05-10T15:04:36;17.80;99.90
20384;DHT22;46458;50.966;7.002;2023-05-10T15:07:14;17.60;99.90
20384;DHT22;46458;50.966;7.002;2023-05-10T15:09:44;17.50;99.90
20384;DHT22;46458;50.966;7.002;2023-05-10T16:25:28;16.10;99.90
20384;DHT22;46458;50.966;7.002;2023-05-10T16:27:57;16.00;99.90
20384;DHT22;46458;50.966;7.002;2023-05-10T16:30:26;15.90;99.90
20384;DHT22;46458;50.966;7.002;2023-05-10T16:32:55;15.90;99.90
20384;DHT22;46458;50.966;7.002;2023-05-10T16:38:16;16.10;99.90
20384;DHT22;46458;50.966;7.002;2023-05-10T16:40:48;16.00;99.90
20384;DHT22;46458;50.966;7.002;2023-05-10T16:43:20;15.90;99.90
20384;DHT22;46458;50.966;7.002;2023-05-10T16:48:45;15.80;99.90
20384;DHT22;46458;50.966;7.002;2023-05-10T16:51:14;15.90;99.90
20384;DHT22;46458;50.966;7.002;2023-05-10T16:53:43;15.90;99.90
20384;DHT22;46458;50.966;7.002;2023-05-10T16:56:14;15.90;99.90
20384;DHT22;46458;50.966;7.002;2023-05-10T16:58:46;15.90;99.90
20384;DHT22;46458;50.966;7.002;2023-05-10T17:01:15;15.80;99.90
20384;DHT22;46458;50.966;7.002;2023-05-10T17:03:44;15.70;99.90
20384;DHT22;46458;50.966;7.002;2023-05-10T17:06:13;15.70;99.90
20384;DHT22;46458;50.966;7.002;2023-05-10T17:08:43;15.70;99.90
20384;DHT22;46458;50.966;7.002;2023-05-10T17:11:17;15.60;99.90
20384;DHT22;46458;50.966;7.002;2023-05-10T17:13:49;15.70;99.90
20384;DHT22;46458;50.966;7.002;2023-05-10T17:16:17;15.70;99.90